createdAt,value
2022-08-01T00:03:47.800Z,23.26
2022-08-01T00:06:34.765Z,23.24
2022-08-01T00:09:03.610Z,23.16
2022-08-01T00:11:56.279Z,23.08
2022-08-01T00:25:00.835Z,22.51
2022-08-01T00:30:54.397Z,22.34
2022-08-01T00:33:23.351Z,22.33
2022-08-01T00:39:15.842Z,22.33
2022-08-01T00:41:44.713Z,22.31
2022-08-01T00:44:13.437Z,22.27
2022-08-01T00:47:19.037Z,22.25
2022-08-01T00:53:18.770Z,22.17
2022-08-01T00:56:07.150Z,22.18
2022-08-01T00:59:14.052Z,22.16
2022-08-01T01:12:08.492Z,22.01
2022-08-01T01:21:38.830Z,21.92
2022-08-01T01:24:58.951Z,21.84
2022-08-01T01:31:08.002Z,21.81
2022-08-01T01:33:47.200Z,21.79
2022-08-01T01:36:35.209Z,21.78
2022-08-01T01:39:22.705Z,21.79
2022-08-01T01:42:10.593Z,21.76
2022-08-01T01:45:04.352Z,21.72
2022-08-01T01:50:43.453Z,21.68
2022-08-01T01:53:32.356Z,21.64
2022-08-01T01:57:00.595Z,21.60
2022-08-01T01:59:50.843Z,21.56
2022-08-01T02:02:57.529Z,21.54
2022-08-01T02:12:08.159Z,21.45
2022-08-01T02:18:34.988Z,21.29
2022-08-01T02:24:10.305Z,21.19
2022-08-01T02:30:44.618Z,21.07
2022-08-01T02:33:53.293Z,21.02
2022-08-01T02:36:41.179Z,20.98
2022-08-01T02:42:21.564Z,20.92
2022-08-01T02:48:05.108Z,20.84
2022-08-01T02:50:35.377Z,20.79
2022-08-01T02:56:37.058Z,20.73
2022-08-01T02:59:27.109Z,20.67
2022-08-01T03:05:44.343Z,20.49
2022-08-01T03:08:50.325Z,20.39
2022-08-01T03:11:58.641Z,20.36
2022-08-01T03:17:39.235Z,20.31
2022-08-01T03:20:12.044Z,20.29
2022-08-01T03:22:59.420Z,20.28
2022-08-01T03:32:21.119Z,20.23
2022-08-01T03:38:56.934Z,20.06
2022-08-01T03:41:47.993Z,20.03
2022-08-01T03:48:22.452Z,20.01
2022-08-01T03:54:18.736Z,19.99
2022-08-01T03:57:43.298Z,19.92
2022-08-01T04:00:32.910Z,19.90
2022-08-01T04:03:21.371Z,19.84
2022-08-01T04:09:33.858Z,19.67
2022-08-01T04:16:22.560Z,19.72
2022-08-01T04:18:52.181Z,20.25
2022-08-01T04:22:15.249Z,20.83
2022-08-01T04:31:42.018Z,22.60
2022-08-01T04:34:52.646Z,23.00
2022-08-01T04:41:28.924Z,24.26
2022-08-01T04:50:47.217Z,25.60
2022-08-01T04:54:31.139Z,26.00
2022-08-01T04:57:40.996Z,26.50
2022-08-01T05:10:23.641Z,27.85
2022-08-01T05:12:52.842Z,28.16
2022-08-01T05:15:42.158Z,28.55
2022-08-01T05:18:47.757Z,28.83
2022-08-01T05:27:46.214Z,29.61
2022-08-01T05:34:15.699Z,30.19
2022-08-01T05:36:45.566Z,30.43
2022-08-01T05:46:47.813Z,31.36
2022-08-01T05:49:35.161Z,31.70
2022-08-01T05:52:22.192Z,32.14
2022-08-01T06:01:40.916Z,32.20
2022-08-01T06:11:04.265Z,33.49
2022-08-01T06:13:33.977Z,33.78
2022-08-01T06:16:35.496Z,34.00
2022-08-01T06:19:40.658Z,33.93
2022-08-01T06:25:19.388Z,34.76
2022-08-01T06:27:50.350Z,34.98
2022-08-01T06:30:37.634Z,35.22
2022-08-01T06:35:53.975Z,35.79
2022-08-01T06:39:00.360Z,35.98
2022-08-01T06:41:47.384Z,36.14
2022-08-01T06:45:29.788Z,36.27
2022-08-01T06:48:36.255Z,35.74
2022-08-01T06:51:23.753Z,35.91
2022-08-01T06:54:30.513Z,35.94
2022-08-01T06:57:18.250Z,35.99
2022-08-01T07:00:24.624Z,36.29
2022-08-01T07:03:11.529Z,36.58
2022-08-01T07:08:28.247Z,37.22
2022-08-01T07:11:52.910Z,37.36
2022-08-01T07:14:58.159Z,37.41
2022-08-01T07:17:45.827Z,37.69
2022-08-01T07:20:16.240Z,37.98
2022-08-01T07:23:03.957Z,37.37
2022-08-01T07:25:33.473Z,37.37
2022-08-01T07:28:21.316Z,37.40
2022-08-01T07:31:08.775Z,37.64
2022-08-01T07:34:50.517Z,37.93
2022-08-01T07:37:19.379Z,37.53
2022-08-01T07:40:30.172Z,37.13
2022-08-01T07:42:59.000Z,36.83
2022-08-01T07:46:04.295Z,36.55
2022-08-01T07:48:51.481Z,36.38
2022-08-01T07:51:38.691Z,35.53
2022-08-01T07:54:47.055Z,35.27
2022-08-01T07:57:18.327Z,35.44
2022-08-01T07:59:47.404Z,35.51
2022-08-01T08:02:35.033Z,35.62
2022-08-01T08:05:58.679Z,35.51
2022-08-01T08:09:06.649Z,35.41
2022-08-01T08:11:54.380Z,35.56
2022-08-01T08:18:13.159Z,35.24
2022-08-01T08:21:04.867Z,35.34
2022-08-01T08:23:53.863Z,35.56
2022-08-01T08:35:59.714Z,35.99
2022-08-01T08:42:13.071Z,35.63
2022-08-01T08:48:16.766Z,36.14
2022-08-01T08:50:49.155Z,36.58
2022-08-01T08:53:36.691Z,36.48
2022-08-01T09:02:43.606Z,36.37
2022-08-01T09:05:17.568Z,35.83
2022-08-01T09:11:31.626Z,36.33
2022-08-01T09:14:31.986Z,36.65
2022-08-01T09:17:23.074Z,37.06
2022-08-01T09:23:55.062Z,36.95
2022-08-01T09:26:33.936Z,36.61
2022-08-01T09:32:32.756Z,36.96
2022-08-01T09:38:30.927Z,36.87
2022-08-01T09:41:37.836Z,37.70
2022-08-01T09:44:09.419Z,38.31
2022-08-01T09:47:51.283Z,38.21
2022-08-01T09:51:07.188Z,37.17
2022-08-01T09:57:14.691Z,38.29
2022-08-01T10:00:02.923Z,38.83
2022-08-01T10:02:41.810Z,39.09
2022-08-01T10:05:37.095Z,38.71
2022-08-01T10:08:08.100Z,38.37
2022-08-01T10:11:13.845Z,38.28
2022-08-01T10:14:07.245Z,38.13
2022-08-01T10:16:57.366Z,37.84
2022-08-01T10:22:39.419Z,37.86
2022-08-01T10:25:48.738Z,38.12
2022-08-01T10:28:24.065Z,37.75
2022-08-01T10:31:50.266Z,37.91
2022-08-01T10:34:23.039Z,37.33
2022-08-01T10:36:53.934Z,37.17
2022-08-01T10:46:32.890Z,37.36
2022-08-01T10:49:22.650Z,37.44
2022-08-01T10:51:54.764Z,37.40
2022-08-01T10:59:06.141Z,36.93
2022-08-01T11:02:32.176Z,36.67
2022-08-01T11:16:41.881Z,37.26
2022-08-01T11:19:28.993Z,37.46
2022-08-01T11:22:34.455Z,37.43
2022-08-01T11:29:17.910Z,37.44
2022-08-01T11:33:11.648Z,37.29
2022-08-01T11:36:16.447Z,36.93
2022-08-01T11:39:22.254Z,37.07
2022-08-01T11:42:09.703Z,36.78
2022-08-01T11:44:56.537Z,36.73
2022-08-01T11:48:04.847Z,37.05
2022-08-01T11:51:15.938Z,37.27
2022-08-01T11:57:51.476Z,37.26
2022-08-01T12:00:43.880Z,36.98
2022-08-01T12:03:20.666Z,37.00
2022-08-01T12:06:28.223Z,36.87
2022-08-01T12:09:34.911Z,36.78
2022-08-01T12:15:10.421Z,36.64
2022-08-01T12:18:33.338Z,36.72
2022-08-01T12:21:38.849Z,36.91
2022-08-01T12:24:43.713Z,37.28
2022-08-01T12:30:40.630Z,37.91
2022-08-01T12:36:34.912Z,38.33
2022-08-01T12:39:30.058Z,38.21
2022-08-01T12:41:59.672Z,38.01
2022-08-01T12:47:57.964Z,38.50
2022-08-01T12:51:04.908Z,38.85
2022-08-01T12:53:40.411Z,38.82
2022-08-01T12:56:12.153Z,38.58
2022-08-01T13:02:11.511Z,38.20
2022-08-01T13:04:52.296Z,38.02
2022-08-01T13:07:45.843Z,37.64
2022-08-01T13:14:28.764Z,37.18
2022-08-01T13:17:15.942Z,37.04
2022-08-01T13:20:39.347Z,37.05
2022-08-01T13:24:04.149Z,37.47
2022-08-01T13:26:41.824Z,37.83
2022-08-01T13:29:12.768Z,38.12
2022-08-01T13:35:01.437Z,38.43
2022-08-01T13:38:10.085Z,38.58
2022-08-01T13:44:38.796Z,38.34
2022-08-01T13:51:02.124Z,38.34
2022-08-01T13:53:58.135Z,37.83
2022-08-01T13:57:03.695Z,37.37
2022-08-01T14:00:28.090Z,36.96
2022-08-01T14:09:18.244Z,36.57
2022-08-01T14:13:06.144Z,36.52
2022-08-01T14:15:37.545Z,36.47
2022-08-01T14:18:10.139Z,36.27
2022-08-01T14:21:01.293Z,36.06
2022-08-01T14:23:52.878Z,36.01
2022-08-01T14:26:57.797Z,36.06
2022-08-01T14:30:21.563Z,36.01
2022-08-01T14:33:28.038Z,35.84
2022-08-01T14:36:53.834Z,35.76
2022-08-01T14:42:48.918Z,35.68
2022-08-01T14:45:17.697Z,35.69
2022-08-01T14:47:46.808Z,35.73
2022-08-01T14:50:34.973Z,35.54
2022-08-01T14:53:22.900Z,35.45
2022-08-01T14:56:28.356Z,35.16
2022-08-01T15:03:15.917Z,35.12
2022-08-01T15:06:39.654Z,35.14
2022-08-01T15:09:09.613Z,35.07
2022-08-01T15:11:39.054Z,34.98
2022-08-01T15:17:53.063Z,34.96
2022-08-01T15:20:40.290Z,34.91
2022-08-01T15:33:22.621Z,34.60
2022-08-01T15:36:46.036Z,34.48
2022-08-01T15:39:56.578Z,34.38
2022-08-01T15:42:45.125Z,34.32
2022-08-01T15:45:49.123Z,34.36
2022-08-01T15:54:14.916Z,34.28
2022-08-01T15:57:19.908Z,34.26
2022-08-01T15:59:48.680Z,34.26
2022-08-01T16:03:12.283Z,34.26
2022-08-01T16:06:17.450Z,34.20
2022-08-01T16:09:04.767Z,34.19
2022-08-01T16:11:51.841Z,34.10
2022-08-01T16:15:15.992Z,34.07
2022-08-01T16:18:05.152Z,33.90
2022-08-01T16:20:34.103Z,33.76
2022-08-01T16:27:02.945Z,33.67
2022-08-01T16:29:31.985Z,33.69
2022-08-01T16:38:32.481Z,33.63
2022-08-01T16:41:01.379Z,33.59
2022-08-01T16:43:53.622Z,33.59
2022-08-01T16:46:22.991Z,33.61
2022-08-01T16:49:10.738Z,33.60
2022-08-01T16:52:16.842Z,33.58
2022-08-01T16:55:22.604Z,33.57
2022-08-01T16:58:10.103Z,33.54
2022-08-01T17:02:03.354Z,33.49
2022-08-01T17:04:08.042Z,33.45
2022-08-01T17:06:55.572Z,33.42
2022-08-01T17:10:01.304Z,33.39
2022-08-01T17:15:53.919Z,33.35
2022-08-01T17:19:18.034Z,33.25
2022-08-01T17:22:22.815Z,32.97
2022-08-01T17:25:30.311Z,32.73
2022-08-01T17:28:17.649Z,32.61
2022-08-01T17:31:24.073Z,32.40
2022-08-01T17:34:11.788Z,32.23
2022-08-01T17:36:40.566Z,32.13
2022-08-01T17:39:38.434Z,31.98
2022-08-01T17:42:29.557Z,31.75
2022-08-01T17:45:28.167Z,31.62
2022-08-01T17:48:17.292Z,31.46
2022-08-01T17:51:06.676Z,31.34
2022-08-01T17:53:56.970Z,31.27
2022-08-01T17:56:28.595Z,31.23
2022-08-01T17:59:34.421Z,31.14
2022-08-01T18:02:04.366Z,31.05
2022-08-01T18:04:33.931Z,30.96
2022-08-01T18:07:22.240Z,30.86
2022-08-01T18:10:33.718Z,30.72
2022-08-01T18:13:21.221Z,30.58
2022-08-01T18:16:26.646Z,30.44
2022-08-01T18:22:33.585Z,30.20
2022-08-01T18:25:22.591Z,30.13
2022-08-01T18:28:35.395Z,30.04
2022-08-01T18:31:08.721Z,29.93
2022-08-01T18:33:37.389Z,29.86
2022-08-01T18:39:49.754Z,29.71
2022-08-01T18:42:55.699Z,29.63
2022-08-01T18:46:00.173Z,29.58
2022-08-01T18:48:48.406Z,29.52
2022-08-01T18:51:37.897Z,29.50
2022-08-01T18:54:47.984Z,29.46
2022-08-01T19:00:59.693Z,29.42
2022-08-01T19:03:28.748Z,29.36
2022-08-01T19:06:35.384Z,29.31
2022-08-01T19:09:23.169Z,29.22
2022-08-01T19:11:52.601Z,29.15
2022-08-01T19:15:04.330Z,29.04
2022-08-01T19:18:10.151Z,28.96
2022-08-01T19:21:17.267Z,28.85
2022-08-01T19:24:25.079Z,28.81
2022-08-01T19:27:13.885Z,28.78
2022-08-01T19:30:38.828Z,28.74
2022-08-01T19:33:25.743Z,28.64
2022-08-01T19:36:34.908Z,28.37
2022-08-01T19:39:23.032Z,28.27
2022-08-01T19:42:47.231Z,28.24
2022-08-01T19:45:56.546Z,28.22
2022-08-01T19:48:49.956Z,28.20
2022-08-01T19:51:41.936Z,28.21
2022-08-01T19:54:13.411Z,28.19
2022-08-01T19:56:45.257Z,28.17
2022-08-01T19:59:51.429Z,28.14
2022-08-01T20:02:40.941Z,28.14
2022-08-01T20:06:05.403Z,28.17
2022-08-01T20:09:12.562Z,28.05
2022-08-01T20:12:20.267Z,27.96
2022-08-01T20:15:08.055Z,27.90
2022-08-01T20:20:45.431Z,27.77
2022-08-01T20:26:45.244Z,27.65
2022-08-01T20:32:42.854Z,27.36
2022-08-01T20:38:39.239Z,27.21
2022-08-01T20:47:38.851Z,26.93
2022-08-01T20:50:52.967Z,26.90
2022-08-01T20:53:24.114Z,26.75
2022-08-01T20:56:34.921Z,26.64
2022-08-01T20:59:54.629Z,26.60
2022-08-01T21:03:08.651Z,26.68
2022-08-01T21:06:24.751Z,26.78
2022-08-01T21:09:00.319Z,26.83
2022-08-01T21:12:23.577Z,26.83
2022-08-01T21:19:19.627Z,26.83
2022-08-01T21:22:15.744Z,26.82
2022-08-01T21:25:23.403Z,26.83
2022-08-01T21:28:32.926Z,26.81
2022-08-01T21:31:40.536Z,26.81
2022-08-01T21:34:46.726Z,26.79
2022-08-01T21:44:29.554Z,26.76
2022-08-01T21:47:18.945Z,26.81
2022-08-01T21:49:47.958Z,26.80
2022-08-01T21:53:01.650Z,26.82
2022-08-01T21:56:50.680Z,26.69
2022-08-01T22:00:01.657Z,26.55
2022-08-01T22:05:51.096Z,26.29
2022-08-01T22:08:42.684Z,26.22
2022-08-01T22:11:31.121Z,26.16
2022-08-01T22:14:21.027Z,26.01
2022-08-01T22:17:10.319Z,25.90
2022-08-01T22:26:34.361Z,25.75
2022-08-01T22:29:41.570Z,25.68
2022-08-01T22:33:15.679Z,25.60
2022-08-01T22:36:32.009Z,25.50
2022-08-01T22:39:19.137Z,25.43
2022-08-01T22:42:09.155Z,25.37
2022-08-01T22:45:22.478Z,25.33
2022-08-01T22:48:18.239Z,25.29
2022-08-01T22:51:43.015Z,25.23
2022-08-01T22:54:50.928Z,25.12
2022-08-01T23:00:47.695Z,25.06
2022-08-01T23:03:36.502Z,25.03
2022-08-01T23:06:25.652Z,25.01
2022-08-01T23:09:15.534Z,24.94
2022-08-01T23:12:03.489Z,24.70
2022-08-01T23:14:37.925Z,24.51
2022-08-01T23:17:29.255Z,24.26
2022-08-01T23:20:20.419Z,24.25
2022-08-01T23:23:30.507Z,24.41
2022-08-01T23:28:49.743Z,23.98
2022-08-01T23:32:03.323Z,23.73
2022-08-01T23:41:57.172Z,23.30
2022-08-01T23:45:23.283Z,23.64
2022-08-01T23:54:40.296Z,23.99
2022-08-01T23:57:28.357Z,24.10
2022-08-01T23:59:57.499Z,24.03
